createdAt,value
2023-05-12T00:00:14.421Z,9.90
2023-05-12T00:02:40.615Z,9.70
2023-05-12T00:05:07.871Z,9.60
2023-05-12T00:07:34.124Z,9.50
2023-05-12T00:10:00.644Z,9.40
2023-05-12T00:12:27.046Z,9.30
2023-05-12T00:14:53.324Z,9.30
2023-05-12T00:17:19.628Z,9.20
2023-05-12T00:19:46.265Z,9.20
2023-05-12T00:22:12.510Z,9.20
2023-05-12T00:24:39.243Z,9.10
2023-05-12T00:27:06.712Z,9.10
2023-05-12T00:29:33.656Z,9.10
2023-05-12T00:31:59.911Z,9.20
2023-05-12T00:34:27.097Z,9.00
2023-05-12T00:36:53.281Z,9.00
2023-05-12T00:39:19.469Z,8.80
2023-05-12T00:41:47.236Z,8.70
2023-05-12T00:44:13.428Z,8.50
2023-05-12T00:46:39.625Z,8.50
2023-05-12T00:49:05.745Z,8.40
2023-05-12T00:51:31.926Z,8.40
2023-05-12T00:53:58.218Z,8.50
2023-05-12T00:56:24.478Z,8.30
2023-05-12T00:58:50.607Z,8.20
2023-05-12T01:01:16.842Z,8.20
2023-05-12T01:03:43.630Z,8.30
2023-05-12T01:06:36.394Z,8.40
2023-05-12T01:09:02.979Z,8.30
2023-05-12T01:11:29.128Z,8.50
2023-05-12T01:13:55.297Z,8.40
2023-05-12T01:16:23.141Z,8.40
2023-05-12T01:18:50.471Z,8.20
2023-05-12T01:21:17.283Z,8.20
2023-05-12T01:23:45.956Z,8.20
2023-05-12T01:26:12.134Z,8.20
2023-05-12T01:28:38.314Z,8.20
2023-05-12T01:31:05.051Z,8.30
2023-05-12T01:33:32.024Z,8.20
2023-05-12T01:35:58.253Z,8.20
2023-05-12T01:38:24.504Z,8.10
2023-05-12T01:40:50.705Z,8.00
2023-05-12T01:43:16.809Z,8.10
2023-05-12T01:45:43.067Z,8.10
2023-05-12T01:48:09.253Z,8.20
2023-05-12T01:50:35.520Z,8.20
2023-05-12T01:53:01.681Z,8.20
2023-05-12T01:55:27.808Z,8.10
2023-05-12T01:57:53.974Z,8.20
2023-05-12T02:00:21.003Z,8.20
2023-05-12T02:02:47.987Z,8.20
2023-05-12T02:05:14.205Z,8.10
2023-05-12T02:07:40.335Z,8.10
2023-05-12T02:10:07.879Z,8.00
2023-05-12T02:12:34.036Z,7.90
2023-05-12T02:15:00.213Z,7.90
2023-05-12T02:17:28.025Z,7.80
2023-05-12T02:19:54.232Z,7.70
2023-05-12T02:22:20.348Z,7.60
2023-05-12T02:24:46.500Z,7.50
2023-05-12T02:27:12.980Z,7.50
2023-05-12T02:29:39.151Z,7.50
2023-05-12T02:32:05.562Z,7.50
2023-05-12T02:34:31.908Z,7.60
2023-05-12T02:36:58.075Z,7.70
2023-05-12T02:39:24.225Z,7.60
2023-05-12T02:41:50.445Z,7.60
2023-05-12T02:44:17.274Z,7.50
2023-05-12T02:46:43.499Z,7.60
2023-05-12T02:49:09.640Z,7.50
2023-05-12T02:51:35.853Z,7.50
2023-05-12T02:54:02.002Z,7.40
2023-05-12T02:56:28.742Z,7.40
2023-05-12T02:58:54.919Z,7.40
2023-05-12T03:01:21.081Z,7.40
2023-05-12T03:03:47.423Z,7.30
2023-05-12T03:06:13.895Z,7.20
2023-05-12T03:08:40.198Z,7.20
2023-05-12T03:11:06.320Z,7.20
2023-05-12T03:13:32.858Z,7.20
2023-05-12T03:16:00.648Z,7.20
2023-05-12T03:18:28.198Z,7.30
2023-05-12T03:20:54.431Z,7.30
2023-05-12T03:23:20.629Z,7.40
2023-05-12T03:25:46.840Z,7.40
2023-05-12T03:28:12.962Z,7.50
2023-05-12T03:30:39.098Z,7.60
2023-05-12T03:33:05.336Z,7.70
2023-05-12T03:35:31.511Z,7.70
2023-05-12T03:37:57.644Z,7.80
2023-05-12T03:40:23.934Z,8.00
2023-05-12T03:42:50.079Z,8.50
2023-05-12T03:45:16.598Z,9.20
2023-05-12T03:47:42.950Z,9.80
2023-05-12T03:50:10.310Z,10.50
2023-05-12T03:52:37.708Z,11.10
2023-05-12T03:55:06.128Z,11.20
2023-05-12T03:57:33.654Z,10.80
2023-05-12T04:00:00.003Z,10.20
2023-05-12T04:02:26.340Z,9.80
2023-05-12T04:04:52.798Z,9.60
2023-05-12T04:07:18.966Z,9.50
2023-05-12T04:09:45.167Z,9.50
2023-05-12T04:12:11.532Z,9.30
2023-05-12T04:14:42.775Z,9.10
2023-05-12T04:17:10.199Z,9.60
2023-05-12T04:19:36.480Z,9.60
2023-05-12T04:22:03.110Z,9.60
2023-05-12T04:24:30.675Z,9.90
2023-05-12T04:26:57.355Z,9.90
2023-05-12T04:29:23.640Z,10.40
2023-05-12T04:31:49.803Z,10.50
2023-05-12T04:34:16.111Z,10.30
2023-05-12T04:36:42.292Z,9.90
2023-05-12T04:39:08.930Z,9.90
2023-05-12T04:41:35.790Z,11.90
2023-05-12T04:44:01.978Z,10.00
2023-05-12T04:46:28.178Z,9.80
2023-05-12T04:48:54.461Z,9.90
2023-05-12T04:51:20.940Z,9.90
2023-05-12T04:53:47.208Z,10.00
2023-05-12T04:56:13.443Z,10.00
2023-05-12T04:58:39.640Z,10.00
2023-05-12T05:01:06.289Z,10.20
2023-05-12T05:03:32.849Z,10.50
2023-05-12T05:05:59.225Z,10.50
2023-05-12T05:08:25.386Z,10.50
2023-05-12T05:10:51.560Z,10.80
2023-05-12T05:13:17.683Z,11.00
2023-05-12T05:15:54.473Z,11.00
2023-05-12T05:18:23.874Z,11.20
2023-05-12T05:20:57.169Z,11.30
2023-05-12T05:23:25.119Z,11.50
2023-05-12T05:25:51.350Z,11.70
2023-05-12T05:28:17.512Z,11.70
2023-05-12T05:30:43.801Z,11.80
2023-05-12T05:33:12.347Z,11.90
2023-05-12T05:35:38.518Z,11.90
2023-05-12T05:38:04.663Z,12.10
2023-05-12T05:40:38.573Z,12.20
2023-05-12T05:43:11.471Z,12.20
2023-05-12T05:45:37.645Z,12.40
2023-05-12T05:48:04.114Z,12.40
2023-05-12T05:50:30.729Z,12.50
2023-05-12T05:52:56.959Z,12.70
2023-05-12T05:55:23.323Z,12.80
2023-05-12T05:57:49.514Z,13.10
2023-05-12T06:00:16.003Z,13.40
2023-05-12T06:02:42.809Z,13.60
2023-05-12T06:05:09.351Z,13.80
2023-05-12T06:07:35.505Z,13.60
2023-05-12T06:10:01.773Z,13.70
2023-05-12T06:12:27.990Z,13.60
2023-05-12T06:14:54.216Z,13.90
2023-05-12T06:17:20.457Z,14.10
2023-05-12T06:19:49.028Z,14.30
2023-05-12T06:22:15.265Z,14.50
2023-05-12T06:24:41.619Z,14.40
2023-05-12T06:27:07.970Z,14.90
2023-05-12T06:29:34.142Z,14.80
2023-05-12T06:32:00.376Z,15.30
2023-05-12T06:34:26.915Z,15.50
2023-05-12T06:36:54.987Z,15.50
2023-05-12T06:39:21.445Z,15.70
2023-05-12T06:41:47.621Z,16.40
2023-05-12T06:44:14.084Z,16.80
2023-05-12T06:46:40.427Z,17.20
2023-05-12T06:49:06.659Z,16.90
2023-05-12T06:51:33.381Z,17.20
2023-05-12T06:54:00.553Z,17.90
2023-05-12T06:56:28.536Z,17.90
2023-05-12T06:59:00.236Z,17.80
2023-05-12T07:01:27.506Z,18.20
2023-05-12T07:03:54.123Z,18.70
2023-05-12T07:06:21.110Z,18.90
2023-05-12T07:08:47.846Z,18.30
2023-05-12T07:11:19.282Z,19.80
2023-05-12T07:13:48.892Z,20.10
2023-05-12T07:16:16.315Z,20.10
2023-05-12T07:18:42.749Z,19.90
2023-05-12T07:21:09.352Z,19.40
2023-05-12T07:23:36.346Z,19.50
2023-05-12T07:26:03.405Z,20.10
2023-05-12T07:28:31.767Z,20.80
2023-05-12T07:30:59.048Z,21.20
2023-05-12T07:33:25.503Z,21.80
2023-05-12T07:35:51.784Z,22.10
2023-05-12T07:38:18.004Z,21.60
2023-05-12T07:40:44.582Z,21.20
2023-05-12T07:43:11.317Z,20.80
2023-05-12T07:45:37.635Z,21.70
2023-05-12T07:48:03.998Z,21.40
2023-05-12T07:50:30.376Z,21.70
2023-05-12T07:52:56.729Z,21.70
2023-05-12T07:55:23.188Z,21.50
2023-05-12T07:57:49.974Z,22.10
2023-05-12T08:00:17.530Z,22.70
2023-05-12T08:02:44.067Z,22.40
2023-05-12T08:05:10.701Z,22.30
2023-05-12T08:07:37.564Z,21.60
2023-05-12T08:10:06.956Z,21.70
2023-05-12T08:12:33.489Z,21.40
2023-05-12T08:14:59.817Z,20.90
2023-05-12T08:17:29.054Z,21.50
2023-05-12T08:19:55.885Z,22.00
2023-05-12T08:22:22.185Z,22.30
2023-05-12T08:24:48.739Z,22.50
2023-05-12T08:27:15.023Z,22.60
2023-05-12T08:29:41.209Z,21.60
2023-05-12T08:32:07.490Z,22.30
2023-05-12T08:34:33.742Z,22.50
2023-05-12T08:37:00.500Z,21.60
2023-05-12T08:39:30.275Z,22.20
2023-05-12T08:44:35.290Z,22.30
2023-05-12T08:47:01.585Z,22.10
2023-05-12T08:49:29.204Z,22.60
2023-05-12T08:51:58.110Z,23.20
2023-05-12T08:54:26.248Z,23.70
2023-05-12T08:59:22.040Z,23.50
2023-05-12T09:01:48.450Z,23.30
2023-05-12T09:04:17.598Z,23.20
2023-05-12T09:06:44.039Z,23.90
2023-05-12T09:09:11.189Z,24.30
2023-05-12T09:11:37.322Z,24.70
2023-05-12T09:14:18.155Z,23.50
2023-05-12T09:16:48.117Z,23.40
2023-05-12T09:19:21.496Z,23.50
2023-05-12T09:21:47.974Z,23.70
2023-05-12T09:24:14.211Z,23.00
2023-05-12T09:26:52.887Z,22.80
2023-05-12T09:29:30.577Z,23.80
2023-05-12T09:31:58.719Z,23.60
2023-05-12T09:34:43.173Z,23.50
2023-05-12T09:37:09.489Z,24.30
2023-05-12T09:39:36.484Z,23.00
2023-05-12T09:42:02.805Z,23.70
2023-05-12T09:44:29.124Z,23.40
2023-05-12T09:46:55.360Z,23.30
2023-05-12T09:49:24.896Z,23.10
2023-05-12T09:52:00.356Z,23.80
2023-05-12T09:54:30.395Z,23.60
2023-05-12T09:57:03.838Z,23.60
2023-05-12T09:59:35.372Z,23.20
2023-05-12T10:02:03.979Z,23.50
2023-05-12T10:04:38.828Z,23.40
2023-05-12T10:07:07.502Z,23.60
2023-05-12T10:09:34.069Z,23.50
2023-05-12T10:12:00.406Z,23.20
2023-05-12T10:14:27.108Z,23.60
2023-05-12T10:16:53.727Z,23.60
2023-05-12T10:19:20.188Z,23.40
2023-05-12T10:21:46.486Z,23.40
2023-05-12T10:24:14.169Z,23.20
2023-05-12T10:26:41.427Z,23.00
2023-05-12T10:29:07.739Z,22.90
2023-05-12T10:31:35.577Z,23.40
2023-05-12T10:34:02.696Z,23.50
2023-05-12T10:36:29.296Z,23.50
2023-05-12T10:38:56.240Z,23.70
2023-05-12T10:41:30.382Z,23.50
2023-05-12T10:43:56.783Z,23.30
2023-05-12T10:46:23.756Z,23.00
2023-05-12T10:48:55.726Z,23.10
2023-05-12T10:51:24.336Z,23.50
2023-05-12T10:54:06.189Z,22.70
2023-05-12T10:56:43.282Z,22.40
2023-05-12T10:59:28.842Z,23.10
2023-05-12T11:04:52.898Z,22.90
2023-05-12T11:07:39.732Z,23.60
2023-05-12T11:10:08.013Z,22.10
2023-05-12T11:12:35.514Z,22.60
2023-05-12T11:15:03.253Z,22.70
2023-05-12T11:17:30.066Z,22.30
2023-05-12T11:19:56.359Z,21.00
2023-05-12T11:22:22.996Z,21.70
2023-05-12T11:24:49.971Z,22.20
2023-05-12T11:27:17.388Z,23.00
2023-05-12T11:29:44.409Z,23.30
2023-05-12T11:32:11.943Z,22.80
2023-05-12T11:34:38.251Z,22.00
2023-05-12T11:37:06.042Z,22.10
2023-05-12T11:39:32.275Z,22.00
2023-05-12T11:42:13.065Z,21.90
2023-05-12T11:44:49.782Z,23.00
2023-05-12T11:47:16.277Z,23.40
2023-05-12T11:49:53.887Z,24.00
2023-05-12T11:52:21.633Z,23.50
2023-05-12T11:54:51.715Z,23.80
2023-05-12T11:57:35.323Z,23.50
2023-05-12T12:00:06.981Z,22.50
2023-05-12T12:02:35.289Z,21.60
2023-05-12T12:05:02.452Z,21.20
2023-05-12T12:07:32.990Z,20.80
2023-05-12T12:10:10.963Z,20.90
2023-05-12T12:12:37.276Z,20.90
2023-05-12T12:15:05.537Z,20.70
2023-05-12T12:17:31.881Z,20.70
2023-05-12T12:19:58.452Z,20.90
2023-05-12T12:22:24.962Z,21.90
2023-05-12T12:24:51.122Z,21.70
2023-05-12T12:27:17.438Z,21.40
2023-05-12T12:29:43.608Z,21.30
2023-05-12T12:32:09.965Z,21.30
2023-05-12T12:34:36.256Z,21.30
2023-05-12T12:37:02.591Z,21.10
2023-05-12T12:39:28.913Z,21.00
2023-05-12T12:41:55.422Z,21.50
2023-05-12T12:44:21.901Z,21.50
2023-05-12T12:46:48.733Z,21.60
2023-05-12T12:49:15.056Z,21.30
2023-05-12T12:51:46.208Z,21.30
2023-05-12T12:54:14.545Z,21.00
2023-05-12T12:56:41.109Z,20.70
2023-05-12T12:59:07.404Z,20.50
2023-05-12T13:01:33.657Z,20.20
2023-05-12T13:04:00.382Z,20.10
2023-05-12T13:06:27.004Z,20.10
2023-05-12T13:08:53.136Z,20.10
2023-05-12T13:11:19.282Z,20.20
2023-05-12T13:13:45.944Z,20.30
2023-05-12T13:16:12.644Z,20.50
2023-05-12T13:18:39.076Z,20.60
2023-05-12T13:21:05.629Z,20.80
2023-05-12T13:23:31.848Z,20.70
2023-05-12T13:25:58.478Z,20.60
2023-05-12T13:28:24.728Z,20.60
2023-05-12T13:30:54.102Z,20.80
2023-05-12T13:33:21.061Z,20.90
2023-05-12T13:35:47.337Z,21.20
2023-05-12T13:38:14.203Z,21.60
2023-05-12T13:40:40.832Z,21.70
2023-05-12T13:43:08.000Z,22.00
2023-05-12T13:45:34.760Z,21.80
2023-05-12T13:48:01.001Z,21.50
2023-05-12T13:50:27.146Z,21.40
2023-05-12T13:52:53.452Z,21.40
2023-05-12T13:55:21.641Z,21.30
2023-05-12T13:57:48.493Z,21.20
2023-05-12T14:00:16.730Z,21.10
2023-05-12T14:02:43.014Z,20.90
2023-05-12T14:05:09.496Z,20.90
2023-05-12T14:07:36.212Z,20.90
2023-05-12T14:10:02.582Z,20.80
2023-05-12T14:12:28.952Z,20.70
2023-05-12T14:15:01.965Z,20.70
2023-05-12T14:17:34.536Z,20.60
2023-05-12T14:20:01.148Z,20.30
2023-05-12T14:22:27.559Z,20.30
2023-05-12T14:24:54.984Z,20.30
2023-05-12T14:27:21.680Z,20.30
2023-05-12T14:29:47.840Z,20.60
2023-05-12T14:32:14.079Z,21.10
2023-05-12T14:34:40.291Z,21.50
2023-05-12T14:37:06.788Z,22.30
2023-05-12T14:39:33.409Z,22.10
2023-05-12T14:41:59.794Z,21.70
2023-05-12T14:44:26.494Z,21.80
2023-05-12T14:46:52.749Z,21.60
2023-05-12T14:49:21.114Z,21.50
2023-05-12T14:51:48.149Z,21.30
2023-05-12T14:54:24.751Z,21.00
2023-05-12T14:56:52.060Z,21.00
2023-05-12T14:59:18.261Z,21.00
2023-05-12T15:01:44.649Z,21.40
2023-05-12T15:04:11.173Z,21.70
2023-05-12T15:06:37.424Z,21.70
2023-05-12T15:09:03.890Z,21.60
2023-05-12T15:11:30.115Z,21.20
2023-05-12T15:13:56.343Z,21.20
2023-05-12T15:16:25.411Z,21.10
2023-05-12T15:18:51.778Z,20.90
2023-05-12T15:21:18.192Z,20.80
2023-05-12T15:23:44.574Z,20.70
2023-05-12T15:26:27.091Z,20.50
2023-05-12T15:28:57.900Z,20.30
2023-05-12T15:31:24.399Z,20.10
2023-05-12T15:33:50.976Z,20.00
2023-05-12T15:36:17.367Z,19.90
2023-05-12T15:38:46.363Z,19.90
2023-05-12T15:41:12.910Z,19.80
2023-05-12T15:43:40.336Z,19.70
2023-05-12T15:46:07.011Z,19.80
2023-05-12T15:48:33.283Z,19.50
2023-05-12T15:51:02.319Z,19.40
2023-05-12T15:53:28.544Z,19.60
2023-05-12T15:56:04.043Z,19.90
2023-05-12T15:58:30.873Z,20.20
2023-05-12T16:00:57.306Z,22.00
2023-05-12T16:03:24.091Z,20.60
2023-05-12T16:05:50.773Z,20.70
2023-05-12T16:08:17.023Z,20.20
2023-05-12T16:10:43.219Z,19.90
2023-05-12T16:13:09.380Z,19.50
2023-05-12T16:15:35.799Z,19.40
2023-05-12T16:18:02.439Z,19.10
2023-05-12T16:20:29.328Z,19.30
2023-05-12T16:22:55.551Z,19.90
2023-05-12T16:25:22.206Z,19.50
2023-05-12T16:27:48.724Z,19.60
2023-05-12T16:30:16.647Z,19.70
2023-05-12T16:32:45.231Z,19.70
2023-05-12T16:35:11.437Z,19.70
2023-05-12T16:37:38.000Z,19.60
2023-05-12T16:40:05.408Z,19.60
2023-05-12T16:42:31.659Z,19.60
2023-05-12T16:44:57.952Z,19.40
2023-05-12T16:47:24.386Z,19.50
2023-05-12T16:49:53.762Z,19.40
2023-05-12T16:52:20.161Z,19.30
2023-05-12T16:54:47.006Z,19.30
2023-05-12T16:57:13.280Z,19.20
2023-05-12T16:59:41.012Z,19.10
2023-05-12T17:02:09.264Z,19.00
2023-05-12T17:04:37.366Z,19.00
2023-05-12T17:07:05.277Z,18.90
2023-05-12T17:09:33.145Z,18.80
2023-05-12T17:12:00.022Z,18.80
2023-05-12T17:14:26.992Z,18.70
2023-05-12T17:16:53.632Z,18.60
2023-05-12T17:19:21.712Z,18.50
2023-05-12T17:21:48.435Z,18.40
2023-05-12T17:24:15.038Z,18.30
2023-05-12T17:26:41.513Z,18.20
2023-05-12T17:29:07.895Z,18.10
2023-05-12T17:31:34.297Z,18.10
2023-05-12T17:34:00.987Z,18.00
2023-05-12T17:36:28.858Z,17.90
2023-05-12T17:38:57.534Z,17.90
2023-05-12T17:41:24.846Z,17.80
2023-05-12T17:43:53.036Z,17.80
2023-05-12T17:46:20.104Z,17.70
2023-05-12T17:48:46.303Z,17.60
2023-05-12T17:51:12.784Z,17.50
2023-05-12T17:53:39.231Z,17.40
2023-05-12T17:56:05.727Z,17.10
2023-05-12T17:58:31.975Z,17.20
2023-05-12T18:00:58.442Z,17.20
2023-05-12T18:03:24.899Z,17.10
2023-05-12T18:05:52.812Z,17.10
2023-05-12T18:08:20.869Z,17.00
2023-05-12T18:10:47.145Z,16.80
2023-05-12T18:13:15.718Z,16.60
2023-05-12T18:15:42.504Z,16.70
2023-05-12T18:18:11.054Z,16.50
2023-05-12T18:20:37.388Z,16.50
2023-05-12T18:23:03.972Z,16.40
2023-05-12T18:25:30.667Z,16.20
2023-05-12T18:27:58.225Z,16.20
2023-05-12T18:30:25.211Z,16.10
2023-05-12T18:32:51.957Z,16.10
2023-05-12T18:35:20.216Z,16.00
2023-05-12T18:37:47.049Z,15.90
2023-05-12T18:40:13.830Z,16.00
2023-05-12T18:42:40.071Z,15.80
2023-05-12T18:45:07.837Z,15.70
2023-05-12T18:47:34.327Z,15.60
2023-05-12T18:50:05.488Z,15.40
2023-05-12T18:52:31.930Z,15.30
2023-05-12T18:54:58.169Z,15.10
2023-05-12T18:57:24.496Z,15.00
2023-05-12T18:59:50.884Z,14.90
2023-05-12T19:02:17.084Z,15.00
2023-05-12T19:04:43.463Z,15.00
2023-05-12T19:07:10.143Z,15.00
2023-05-12T19:09:36.830Z,14.90
2023-05-12T19:12:05.136Z,14.90
2023-05-12T19:14:31.330Z,14.60
2023-05-12T19:16:57.970Z,14.30
2023-05-12T19:19:24.244Z,14.10
2023-05-12T19:21:51.349Z,13.90
2023-05-12T19:24:17.684Z,13.80
2023-05-12T19:26:44.077Z,13.80
2023-05-12T19:29:11.567Z,13.60
2023-05-12T19:31:38.126Z,13.50
2023-05-12T19:34:04.608Z,13.40
2023-05-12T19:36:30.961Z,13.30
2023-05-12T19:38:59.679Z,13.10
2023-05-12T19:41:28.827Z,13.10
2023-05-12T19:43:55.885Z,13.10
2023-05-12T19:46:22.340Z,13.00
2023-05-12T19:48:49.362Z,13.10
2023-05-12T19:51:15.758Z,13.00
2023-05-12T19:53:43.194Z,13.00
2023-05-12T19:56:09.426Z,12.80
2023-05-12T19:58:35.705Z,12.70
2023-05-12T20:01:01.982Z,12.70
2023-05-12T20:03:28.153Z,12.70
2023-05-12T20:05:54.338Z,12.50
2023-05-12T20:08:22.756Z,12.40
2023-05-12T20:10:49.292Z,13.70
2023-05-12T20:13:15.516Z,12.50
2023-05-12T20:15:43.357Z,12.40
2023-05-12T20:18:12.666Z,12.50
2023-05-12T20:20:39.351Z,12.50
2023-05-12T20:23:05.810Z,12.40
2023-05-12T20:25:33.496Z,12.30
2023-05-12T20:27:59.746Z,12.20
2023-05-12T20:30:26.081Z,12.30
2023-05-12T20:32:52.401Z,12.20
2023-05-12T20:35:19.174Z,12.20
2023-05-12T20:37:46.223Z,12.10
2023-05-12T20:40:13.515Z,11.90
2023-05-12T20:42:40.108Z,11.80
2023-05-12T20:45:08.347Z,12.10
2023-05-12T20:47:36.462Z,11.90
2023-05-12T20:50:12.810Z,11.90
2023-05-12T20:52:39.980Z,11.90
2023-05-12T20:55:09.863Z,11.90
2023-05-12T20:57:42.130Z,11.90
2023-05-12T21:00:13.131Z,11.90
2023-05-12T21:02:43.309Z,11.90
2023-05-12T21:05:10.268Z,11.90
2023-05-12T21:07:36.491Z,11.90
2023-05-12T21:10:03.625Z,11.80
2023-05-12T21:12:33.732Z,11.80
2023-05-12T21:15:02.316Z,11.70
2023-05-12T21:20:56.814Z,11.70
2023-05-12T21:23:23.472Z,11.60
2023-05-12T21:25:52.809Z,11.50
2023-05-12T21:28:18.981Z,11.40
2023-05-12T21:30:45.653Z,11.30
2023-05-12T21:33:12.089Z,11.30
2023-05-12T21:35:38.675Z,11.40
2023-05-12T21:38:06.852Z,11.40
2023-05-12T21:40:33.378Z,11.40
2023-05-12T21:42:59.713Z,11.30
2023-05-12T21:45:26.089Z,11.30
2023-05-12T21:47:52.798Z,11.20
2023-05-12T21:50:21.419Z,11.30
2023-05-12T21:52:48.418Z,11.20
2023-05-12T21:55:15.402Z,11.30
2023-05-12T21:57:41.779Z,11.40
2023-05-12T22:00:10.274Z,11.50
2023-05-12T22:02:36.513Z,11.50
2023-05-12T22:05:04.046Z,11.60
2023-05-12T22:07:30.883Z,11.50
2023-05-12T22:09:57.441Z,11.40
2023-05-12T22:12:23.731Z,11.30
2023-05-12T22:14:50.208Z,11.30
2023-05-12T22:17:16.433Z,11.30
2023-05-12T22:19:43.387Z,11.20
2023-05-12T22:22:10.112Z,11.10
2023-05-12T22:24:36.287Z,11.00
2023-05-12T22:27:02.548Z,11.00
2023-05-12T22:29:28.799Z,10.90
2023-05-12T22:31:55.126Z,10.90
2023-05-12T22:34:21.368Z,10.70
2023-05-12T22:36:47.552Z,10.60
2023-05-12T22:39:14.004Z,10.60
2023-05-12T22:41:41.280Z,10.50
2023-05-12T22:44:08.166Z,11.60
2023-05-12T22:46:34.371Z,10.50
2023-05-12T22:49:00.915Z,10.50
2023-05-12T22:51:27.294Z,10.40
2023-05-12T22:53:53.452Z,10.50
2023-05-12T22:56:19.649Z,10.60
2023-05-12T22:58:46.082Z,10.50
2023-05-12T23:01:12.278Z,10.60
2023-05-12T23:03:38.998Z,10.50
2023-05-12T23:06:05.713Z,10.70
2023-05-12T23:08:31.991Z,10.60
2023-05-12T23:10:58.347Z,10.60
2023-05-12T23:13:24.549Z,12.60
2023-05-12T23:15:50.717Z,10.60
2023-05-12T23:18:16.849Z,10.50
2023-05-12T23:20:43.147Z,10.40
2023-05-12T23:23:09.539Z,10.40
2023-05-12T23:25:38.265Z,10.40
2023-05-12T23:28:05.836Z,11.80
2023-05-12T23:30:32.173Z,10.30
2023-05-12T23:32:58.679Z,10.20
2023-05-12T23:35:25.940Z,10.20
2023-05-12T23:37:52.145Z,10.20
2023-05-12T23:40:18.699Z,10.10
2023-05-12T23:42:45.087Z,10.10
2023-05-12T23:45:11.395Z,10.00
2023-05-12T23:47:37.902Z,10.00
2023-05-12T23:50:05.420Z,10.00
2023-05-12T23:52:31.616Z,10.10
2023-05-12T23:54:57.786Z,10.00
2023-05-12T23:57:23.973Z,9.90
2023-05-12T23:59:50.316Z,9.80
